createdAt,value
2022-12-17T00:00:56.867Z,0.00
2022-12-17T00:01:56.792Z,0.00
2022-12-17T00:02:56.935Z,0.00
2022-12-17T00:03:57.140Z,0.00
2022-12-17T00:04:56.795Z,0.00
2022-12-17T00:05:56.755Z,0.00
2022-12-17T00:06:56.766Z,0.00
2022-12-17T00:07:56.739Z,0.00
2022-12-17T00:08:56.748Z,0.00
2022-12-17T00:09:56.740Z,0.00
2022-12-17T00:10:56.724Z,0.00
2022-12-17T00:11:56.726Z,0.00
2022-12-17T00:12:56.716Z,0.00
2022-12-17T00:13:56.664Z,0.00
2022-12-17T00:14:56.674Z,0.00
2022-12-17T00:15:56.685Z,0.00
2022-12-17T00:16:56.644Z,0.00
2022-12-17T00:17:56.634Z,0.00
2022-12-17T00:18:56.644Z,0.00
2022-12-17T00:19:56.618Z,0.00
2022-12-17T00:20:56.604Z,0.00
2022-12-17T00:21:56.590Z,0.00
2022-12-17T00:22:56.586Z,0.00
2022-12-17T00:23:56.608Z,0.00
2022-12-17T00:24:56.574Z,0.00
2022-12-17T00:25:56.544Z,0.00
2022-12-17T00:26:56.552Z,0.00
2022-12-17T00:27:56.523Z,0.00
2022-12-17T00:28:56.513Z,0.00
2022-12-17T00:29:56.514Z,0.00
2022-12-17T00:30:56.492Z,0.00
2022-12-17T00:31:56.539Z,0.00
2022-12-17T00:32:56.474Z,0.00
2022-12-17T00:33:56.452Z,0.00
2022-12-17T00:34:56.505Z,0.00
2022-12-17T00:35:56.433Z,0.00
2022-12-17T00:36:56.436Z,0.00
2022-12-17T00:37:56.448Z,0.00
2022-12-17T00:38:56.666Z,0.00
2022-12-17T00:39:59.337Z,0.00
2022-12-17T00:40:56.383Z,0.00
2022-12-17T00:41:56.403Z,0.00
2022-12-17T00:42:56.495Z,0.00
2022-12-17T00:43:56.433Z,0.00
2022-12-17T00:44:56.354Z,0.00
2022-12-17T00:45:56.347Z,0.00
2022-12-17T00:46:56.369Z,0.00
2022-12-17T00:47:56.324Z,0.00
2022-12-17T00:48:56.384Z,0.00
2022-12-17T00:49:56.358Z,0.00
2022-12-17T00:50:56.284Z,0.00
2022-12-17T00:51:56.334Z,0.00
2022-12-17T00:52:56.443Z,0.00
2022-12-17T00:53:56.277Z,0.00
2022-12-17T00:54:56.473Z,0.00
2022-12-17T00:55:56.243Z,0.00
2022-12-17T00:56:56.333Z,0.00
2022-12-17T00:57:56.269Z,0.00
2022-12-17T00:58:56.202Z,0.00
2022-12-17T00:59:56.233Z,0.00
2022-12-17T01:00:56.272Z,0.00
2022-12-17T01:01:56.275Z,0.00
2022-12-17T01:02:56.239Z,0.00
2022-12-17T01:03:56.145Z,0.00
2022-12-17T01:04:56.240Z,0.00
2022-12-17T01:05:56.163Z,0.00
2022-12-17T01:06:56.119Z,0.00
2022-12-17T01:07:56.362Z,0.00
2022-12-17T01:08:56.455Z,0.00
2022-12-17T01:09:56.106Z,0.00
2022-12-17T01:10:56.357Z,0.00
2022-12-17T01:11:56.387Z,0.00
2022-12-17T01:12:56.310Z,0.00
2022-12-17T01:13:56.070Z,0.00
2022-12-17T01:14:56.035Z,0.00
2022-12-17T01:15:56.756Z,0.00
2022-12-17T01:16:56.532Z,0.00
2022-12-17T01:17:56.282Z,0.00
2022-12-17T01:18:56.214Z,0.00
2022-12-17T01:19:56.470Z,0.00
2022-12-17T01:20:55.987Z,0.00
2022-12-17T01:21:55.964Z,0.00
2022-12-17T01:22:56.460Z,0.00
2022-12-17T01:23:55.947Z,0.00
2022-12-17T01:24:56.153Z,0.00
2022-12-17T01:25:56.401Z,0.00
2022-12-17T01:26:56.255Z,0.00
2022-12-17T01:27:56.269Z,0.00
2022-12-17T01:28:55.940Z,0.00
2022-12-17T01:29:55.874Z,0.00
2022-12-17T01:30:55.868Z,0.00
2022-12-17T01:31:55.893Z,0.00
2022-12-17T01:32:55.877Z,0.00
2022-12-17T01:33:55.824Z,0.00
2022-12-17T01:34:55.819Z,0.00
2022-12-17T01:35:55.865Z,0.00
2022-12-17T01:36:55.803Z,0.00
2022-12-17T01:37:55.871Z,0.00
2022-12-17T01:38:55.812Z,0.00
2022-12-17T01:39:55.768Z,0.00
2022-12-17T01:40:55.926Z,0.00
2022-12-17T01:41:55.760Z,0.00
2022-12-17T01:42:55.734Z,0.00
2022-12-17T01:43:55.737Z,0.00
2022-12-17T01:44:55.725Z,0.00
2022-12-17T01:45:55.758Z,0.00
2022-12-17T01:46:55.726Z,0.00
2022-12-17T01:47:56.300Z,0.00
2022-12-17T01:48:55.667Z,0.00
2022-12-17T01:49:55.686Z,0.00
2022-12-17T01:50:55.664Z,0.00
2022-12-17T01:51:55.643Z,0.00
2022-12-17T01:52:55.652Z,0.00
2022-12-17T01:53:56.403Z,0.00
2022-12-17T01:54:55.651Z,0.00
2022-12-17T01:55:55.705Z,0.00
2022-12-17T01:56:55.597Z,0.00
2022-12-17T01:57:55.590Z,0.00
2022-12-17T01:58:55.567Z,0.00
2022-12-17T01:59:55.565Z,0.00
2022-12-17T02:00:55.617Z,0.00
2022-12-17T02:01:55.750Z,0.00
2022-12-17T02:02:55.703Z,0.00
2022-12-17T02:03:55.515Z,0.00
2022-12-17T02:04:55.513Z,0.00
2022-12-17T02:05:55.525Z,0.00
2022-12-17T02:06:55.476Z,0.00
2022-12-17T02:07:55.477Z,0.00
2022-12-17T02:08:55.464Z,0.00
2022-12-17T02:09:55.496Z,0.00
2022-12-17T02:10:56.557Z,0.00
2022-12-17T02:11:55.458Z,0.00
2022-12-17T02:12:55.447Z,0.00
2022-12-17T02:13:55.416Z,0.00
2022-12-17T02:14:55.397Z,0.00
2022-12-17T02:15:55.395Z,0.00
2022-12-17T02:16:55.428Z,0.00
2022-12-17T02:17:55.376Z,0.00
2022-12-17T02:18:55.355Z,0.00
2022-12-17T02:19:55.347Z,0.00
2022-12-17T02:20:55.346Z,0.00
2022-12-17T02:21:55.317Z,0.00
2022-12-17T02:22:55.327Z,0.00
2022-12-17T02:23:56.502Z,0.00
2022-12-17T02:24:55.286Z,0.00
2022-12-17T02:25:55.286Z,0.00
2022-12-17T02:26:55.283Z,0.00
2022-12-17T02:27:55.257Z,0.00
2022-12-17T02:28:55.289Z,0.00
2022-12-17T02:29:55.239Z,0.00
2022-12-17T02:30:55.256Z,0.00
2022-12-17T02:31:55.300Z,0.00
2022-12-17T02:32:55.218Z,0.00
2022-12-17T02:33:55.203Z,0.00
2022-12-17T02:34:55.207Z,0.00
2022-12-17T02:35:55.178Z,0.00
2022-12-17T02:36:55.182Z,0.00
2022-12-17T02:37:55.163Z,0.00
2022-12-17T02:38:56.673Z,0.00
2022-12-17T02:39:55.385Z,0.00
2022-12-17T02:40:56.969Z,0.00
2022-12-17T02:41:55.126Z,0.00
2022-12-17T02:42:55.121Z,0.00
2022-12-17T02:43:55.107Z,0.00
2022-12-17T02:44:55.078Z,0.00
2022-12-17T02:45:55.159Z,0.00
2022-12-17T02:46:55.066Z,0.00
2022-12-17T02:47:55.059Z,0.00
2022-12-17T02:48:55.032Z,0.00
2022-12-17T02:49:55.047Z,0.00
2022-12-17T02:50:55.021Z,0.00
2022-12-17T02:51:55.030Z,0.00
2022-12-17T02:52:54.995Z,0.00
2022-12-17T02:53:54.986Z,0.00
2022-12-17T02:54:54.965Z,0.00
2022-12-17T02:55:54.969Z,0.00
2022-12-17T02:56:54.987Z,0.00
2022-12-17T02:57:54.938Z,0.00
2022-12-17T02:58:54.934Z,0.00
2022-12-17T02:59:54.928Z,0.00
2022-12-17T03:00:54.933Z,0.00
2022-12-17T03:01:55.210Z,0.00
2022-12-17T03:02:55.019Z,0.00
2022-12-17T03:03:54.884Z,0.00
2022-12-17T03:04:54.857Z,0.00
2022-12-17T03:05:54.866Z,0.00
2022-12-17T03:06:54.849Z,0.00
2022-12-17T03:07:54.867Z,0.00
2022-12-17T03:08:54.828Z,0.00
2022-12-17T03:09:54.810Z,0.00
2022-12-17T03:10:54.821Z,0.00
2022-12-17T03:11:54.820Z,0.00
2022-12-17T03:12:54.788Z,0.00
2022-12-17T03:13:54.776Z,0.00
2022-12-17T03:14:54.779Z,0.00
2022-12-17T03:15:54.756Z,0.00
2022-12-17T03:16:54.810Z,0.00
2022-12-17T03:17:54.739Z,0.00
2022-12-17T03:18:54.715Z,0.00
2022-12-17T03:19:54.718Z,0.00
2022-12-17T03:20:54.716Z,0.00
2022-12-17T03:21:54.709Z,0.00
2022-12-17T03:22:54.678Z,0.00
2022-12-17T03:23:54.763Z,0.00
2022-12-17T03:24:54.731Z,0.00
2022-12-17T03:25:54.647Z,0.00
2022-12-17T03:26:54.678Z,0.00
2022-12-17T03:27:54.628Z,0.00
2022-12-17T03:28:54.648Z,0.00
2022-12-17T03:29:54.605Z,0.00
2022-12-17T03:30:54.649Z,0.00
2022-12-17T03:31:54.587Z,0.00
2022-12-17T03:32:54.634Z,0.00
2022-12-17T03:33:54.567Z,0.00
2022-12-17T03:34:54.555Z,0.00
2022-12-17T03:35:54.565Z,0.00
2022-12-17T03:36:54.536Z,0.00
2022-12-17T03:37:54.539Z,0.00
2022-12-17T03:38:54.522Z,0.00
2022-12-17T03:39:54.509Z,0.00
2022-12-17T03:40:54.517Z,0.00
2022-12-17T03:41:54.478Z,0.00
2022-12-17T03:42:54.476Z,0.00
2022-12-17T03:43:54.456Z,0.00
2022-12-17T03:44:54.444Z,0.00
2022-12-17T03:45:54.501Z,0.00
2022-12-17T03:46:54.417Z,0.00
2022-12-17T03:47:54.427Z,0.00
2022-12-17T03:48:54.398Z,0.00
2022-12-17T03:49:54.396Z,0.00
2022-12-17T03:50:54.416Z,0.00
2022-12-17T03:51:54.365Z,0.00
2022-12-17T03:52:54.359Z,0.00
2022-12-17T03:53:54.360Z,0.00
2022-12-17T03:54:54.338Z,0.00
2022-12-17T03:55:54.347Z,0.00
2022-12-17T03:56:54.314Z,0.00
2022-12-17T03:57:54.306Z,0.00
2022-12-17T03:58:54.357Z,0.00
2022-12-17T03:59:54.289Z,0.00
2022-12-17T04:00:54.278Z,0.00
2022-12-17T04:01:54.390Z,0.00
2022-12-17T04:02:54.433Z,0.00
2022-12-17T04:03:54.246Z,0.00
2022-12-17T04:04:54.236Z,0.00
2022-12-17T04:05:54.238Z,0.00
2022-12-17T04:06:54.217Z,0.00
2022-12-17T04:07:54.197Z,0.00
2022-12-17T04:08:54.190Z,0.00
2022-12-17T04:09:54.185Z,0.00
2022-12-17T04:10:54.166Z,0.00
2022-12-17T04:11:54.176Z,0.00
2022-12-17T04:12:54.145Z,0.00
2022-12-17T04:13:54.137Z,0.00
2022-12-17T04:14:54.131Z,0.00
2022-12-17T04:15:54.178Z,0.00
2022-12-17T04:16:54.114Z,0.00
2022-12-17T04:17:54.102Z,0.00
2022-12-17T04:18:54.096Z,0.00
2022-12-17T04:19:54.079Z,0.00
2022-12-17T04:20:54.056Z,0.00
2022-12-17T04:21:54.087Z,0.00
2022-12-17T04:22:54.075Z,0.00
2022-12-17T04:23:54.058Z,0.00
2022-12-17T04:24:54.035Z,0.00
2022-12-17T04:25:54.016Z,0.00
2022-12-17T04:26:54.009Z,0.00
2022-12-17T04:27:53.997Z,0.00
2022-12-17T04:28:53.977Z,0.00
2022-12-17T04:29:53.975Z,0.00
2022-12-17T04:30:54.025Z,0.00
2022-12-17T04:31:53.965Z,0.00
2022-12-17T04:32:53.949Z,0.00
2022-12-17T04:33:53.936Z,0.00
2022-12-17T04:34:53.937Z,0.00
2022-12-17T04:35:53.901Z,0.00
2022-12-17T04:36:53.888Z,0.00
2022-12-17T04:37:53.920Z,0.00
2022-12-17T04:38:53.868Z,0.00
2022-12-17T04:39:53.876Z,0.00
2022-12-17T04:40:53.857Z,0.00
2022-12-17T04:41:53.843Z,0.00
2022-12-17T04:42:53.836Z,0.00
2022-12-17T04:43:58.143Z,0.00
2022-12-17T04:44:54.825Z,0.00
2022-12-17T04:45:53.862Z,0.00
2022-12-17T04:46:53.798Z,0.00
2022-12-17T04:47:53.796Z,0.00
2022-12-17T04:48:53.776Z,0.00
2022-12-17T04:49:53.758Z,0.00
2022-12-17T04:50:53.746Z,0.00
2022-12-17T04:51:53.739Z,0.00
2022-12-17T04:52:53.729Z,0.00
2022-12-17T04:53:53.707Z,0.00
2022-12-17T04:54:53.707Z,0.00
2022-12-17T04:55:53.690Z,0.00
2022-12-17T04:56:53.692Z,0.00
2022-12-17T04:57:53.677Z,0.00
2022-12-17T04:58:53.656Z,0.00
2022-12-17T04:59:53.660Z,0.00
2022-12-17T05:00:53.641Z,0.00
2022-12-17T05:01:53.704Z,0.00
2022-12-17T05:02:53.780Z,0.00
2022-12-17T05:03:53.680Z,0.00
2022-12-17T05:04:53.606Z,0.00
2022-12-17T05:05:53.587Z,0.00
2022-12-17T05:06:53.580Z,0.00
2022-12-17T05:07:53.586Z,0.00
2022-12-17T05:08:53.577Z,0.00
2022-12-17T05:09:53.576Z,0.00
2022-12-17T05:10:53.539Z,0.00
2022-12-17T05:11:53.559Z,0.00
2022-12-17T05:12:53.547Z,0.00
2022-12-17T05:13:53.510Z,0.00
2022-12-17T05:14:53.498Z,0.00
2022-12-17T05:15:53.745Z,0.00
2022-12-17T05:16:53.488Z,0.00
2022-12-17T05:17:53.497Z,0.00
2022-12-17T05:18:53.456Z,0.00
2022-12-17T05:19:53.458Z,0.00
2022-12-17T05:20:53.467Z,0.00
2022-12-17T05:21:53.409Z,0.00
2022-12-17T05:22:53.456Z,0.00
2022-12-17T05:23:53.412Z,0.00
2022-12-17T05:24:53.400Z,0.00
2022-12-17T05:25:53.377Z,0.00
2022-12-17T05:26:53.367Z,0.00
2022-12-17T05:27:53.360Z,0.00
2022-12-17T05:28:53.366Z,0.00
2022-12-17T05:29:53.346Z,0.00
2022-12-17T05:30:53.426Z,0.00
2022-12-17T05:31:53.317Z,0.00
2022-12-17T05:32:53.317Z,0.00
2022-12-17T05:33:53.289Z,0.00
2022-12-17T05:34:53.277Z,0.00
2022-12-17T05:35:53.357Z,0.00
2022-12-17T05:36:53.344Z,0.00
2022-12-17T05:37:53.257Z,0.00
2022-12-17T05:38:53.235Z,0.00
2022-12-17T05:39:53.243Z,0.00
2022-12-17T05:40:53.228Z,0.00
2022-12-17T05:41:53.205Z,0.00
2022-12-17T05:42:53.197Z,0.00
2022-12-17T05:43:53.197Z,0.00
2022-12-17T05:44:53.210Z,0.00
2022-12-17T05:45:53.157Z,0.00
2022-12-17T05:46:53.222Z,0.00
2022-12-17T05:47:53.168Z,0.00
2022-12-17T05:48:53.130Z,0.00
2022-12-17T05:49:53.117Z,0.00
2022-12-17T05:50:53.116Z,0.00
2022-12-17T05:51:53.096Z,0.00
2022-12-17T05:52:53.116Z,0.00
2022-12-17T05:53:53.096Z,0.00
2022-12-17T05:54:53.081Z,0.00
2022-12-17T05:55:53.099Z,0.00
2022-12-17T05:56:53.052Z,0.00
2022-12-17T05:57:56.560Z,0.00
2022-12-17T05:58:53.025Z,0.00
2022-12-17T05:59:53.028Z,0.00
2022-12-17T06:00:52.996Z,0.00
2022-12-17T06:01:53.050Z,0.00
2022-12-17T06:02:53.133Z,0.00
2022-12-17T06:03:53.089Z,0.00
2022-12-17T06:04:56.297Z,0.00
2022-12-17T06:05:53.987Z,0.00
2022-12-17T06:06:52.966Z,0.00
2022-12-17T06:07:52.945Z,0.00
2022-12-17T06:08:52.925Z,0.00
2022-12-17T06:09:52.917Z,0.00
2022-12-17T06:10:53.054Z,0.00
2022-12-17T06:11:54.714Z,0.00
2022-12-17T06:12:53.880Z,0.00
2022-12-17T06:13:52.870Z,0.00
2022-12-17T06:14:52.857Z,0.00
2022-12-17T06:15:52.910Z,0.00
2022-12-17T06:16:52.835Z,0.00
2022-12-17T06:17:52.855Z,0.00
2022-12-17T06:18:52.837Z,0.00
2022-12-17T06:19:52.817Z,0.00
2022-12-17T06:20:52.795Z,0.00
2022-12-17T06:21:52.797Z,0.00
2022-12-17T06:22:52.801Z,0.00
2022-12-17T06:23:52.786Z,0.00
2022-12-17T06:24:52.758Z,0.00
2022-12-17T06:25:52.766Z,0.00
2022-12-17T06:26:52.724Z,0.00
2022-12-17T06:27:52.748Z,0.00
2022-12-17T06:28:52.717Z,0.00
2022-12-17T06:29:52.696Z,0.00
2022-12-17T06:30:52.684Z,0.00
2022-12-17T06:31:52.734Z,0.00
2022-12-17T06:32:52.676Z,0.00
2022-12-17T06:33:52.655Z,0.00
2022-12-17T06:34:52.647Z,0.00
2022-12-17T06:35:52.636Z,0.00
2022-12-17T06:36:52.637Z,0.00
2022-12-17T06:37:52.616Z,0.00
2022-12-17T06:38:52.610Z,0.00
2022-12-17T06:39:52.593Z,0.00
2022-12-17T06:40:52.578Z,0.00
2022-12-17T06:41:52.587Z,0.00
2022-12-17T06:42:52.595Z,0.00
2022-12-17T06:43:52.591Z,0.00
2022-12-17T06:44:52.543Z,0.00
2022-12-17T06:45:52.535Z,0.00
2022-12-17T06:46:52.583Z,0.00
2022-12-17T06:47:52.535Z,0.00
2022-12-17T06:48:52.514Z,0.00
2022-12-17T06:49:56.600Z,0.00
2022-12-17T06:50:53.502Z,0.00
2022-12-17T06:51:52.464Z,4.00
2022-12-17T06:52:52.478Z,4.00
2022-12-17T06:53:52.458Z,0.00
2022-12-17T06:54:52.437Z,4.00
2022-12-17T06:55:52.436Z,4.00
2022-12-17T06:56:52.426Z,4.00
2022-12-17T06:57:52.501Z,4.00
2022-12-17T06:58:52.422Z,4.00
2022-12-17T06:59:52.387Z,4.00
2022-12-17T07:00:52.446Z,4.00
2022-12-17T07:01:52.458Z,8.00
2022-12-17T07:02:52.478Z,8.00
2022-12-17T07:03:52.588Z,12.00
2022-12-17T07:04:52.347Z,12.00
2022-12-17T07:05:52.347Z,16.00
2022-12-17T07:06:52.308Z,16.00
2022-12-17T07:07:52.305Z,20.00
2022-12-17T07:08:52.315Z,20.00
2022-12-17T07:09:52.289Z,20.00
2022-12-17T07:10:52.332Z,28.00
2022-12-17T07:11:52.364Z,28.00
2022-12-17T07:12:52.256Z,36.00
2022-12-17T07:13:52.256Z,40.00
2022-12-17T07:14:52.224Z,48.00
2022-12-17T07:15:52.232Z,52.00
2022-12-17T07:16:52.290Z,60.00
2022-12-17T07:17:52.196Z,72.00
2022-12-17T07:18:52.206Z,80.00
2022-12-17T07:19:52.177Z,88.00
2022-12-17T07:20:52.174Z,104.00
2022-12-17T07:21:52.175Z,116.00
2022-12-17T07:22:52.144Z,124.00
2022-12-17T07:23:52.166Z,140.00
2022-12-17T07:24:52.126Z,156.00
2022-12-17T07:25:52.106Z,168.00
2022-12-17T07:26:52.118Z,188.00
2022-12-17T07:27:52.087Z,204.00
2022-12-17T07:28:52.136Z,224.00
2022-12-17T07:29:52.086Z,240.00
2022-12-17T07:30:55.750Z,264.00
2022-12-17T07:31:52.171Z,280.00
2022-12-17T07:32:52.053Z,292.00
2022-12-17T07:33:52.036Z,304.00
2022-12-17T07:34:52.025Z,324.00
2022-12-17T07:35:52.015Z,348.00
2022-12-17T07:36:51.996Z,384.00
2022-12-17T07:37:51.985Z,412.00
2022-12-17T07:38:51.996Z,436.00
2022-12-17T07:39:51.983Z,456.00
2022-12-17T07:40:52.005Z,468.00
2022-12-17T07:41:51.964Z,496.00
2022-12-17T07:42:51.947Z,508.00
2022-12-17T07:43:53.363Z,528.00
2022-12-17T07:44:51.911Z,544.00
2022-12-17T07:45:51.955Z,556.00
2022-12-17T07:46:51.899Z,568.00
2022-12-17T07:47:51.925Z,588.00
2022-12-17T07:48:51.895Z,604.00
2022-12-17T07:49:51.855Z,628.00
2022-12-17T07:50:51.857Z,652.00
2022-12-17T07:51:51.845Z,680.00
2022-12-17T07:52:51.845Z,700.00
2022-12-17T07:53:51.833Z,728.00
2022-12-17T07:54:51.810Z,748.00
2022-12-17T07:55:51.886Z,788.00
2022-12-17T07:56:51.802Z,804.00
2022-12-17T07:57:51.809Z,820.00
2022-12-17T07:58:52.055Z,872.00
2022-12-17T07:59:51.814Z,932.00
2022-12-17T08:00:51.780Z,1008.00
2022-12-17T08:01:51.934Z,1068.00
2022-12-17T08:02:51.873Z,1128.00
2022-12-17T08:03:51.726Z,1168.00
2022-12-17T08:04:51.718Z,1184.00
2022-12-17T08:05:51.688Z,1216.00
2022-12-17T08:06:56.625Z,1316.00
2022-12-17T08:07:52.709Z,1368.00
2022-12-17T08:08:51.656Z,1396.00
2022-12-17T08:09:51.662Z,1448.00
2022-12-17T08:10:51.647Z,1464.00
2022-12-17T08:11:51.635Z,1520.00
2022-12-17T08:12:51.614Z,1600.00
2022-12-17T08:13:51.630Z,1708.00
2022-12-17T08:14:51.604Z,1700.00
2022-12-17T08:15:51.591Z,1824.00
2022-12-17T08:16:51.675Z,1964.00
2022-12-17T08:17:51.614Z,2080.00
2022-12-17T08:18:51.585Z,2216.00
2022-12-17T08:19:51.827Z,2328.00
2022-12-17T08:20:51.537Z,2304.00
2022-12-17T08:21:51.550Z,2420.00
2022-12-17T08:22:51.516Z,2428.00
2022-12-17T08:23:51.517Z,2400.00
2022-12-17T08:24:51.535Z,2548.00
2022-12-17T08:25:51.498Z,2688.00
2022-12-17T08:26:51.496Z,2764.00
2022-12-17T08:27:51.477Z,2972.00
2022-12-17T08:28:51.594Z,3124.00
2022-12-17T08:29:51.465Z,2940.00
2022-12-17T08:30:51.524Z,2928.00
2022-12-17T08:31:51.455Z,3064.00
2022-12-17T08:32:51.415Z,3140.00
2022-12-17T08:33:51.395Z,3272.00
2022-12-17T08:34:51.406Z,3472.00
2022-12-17T08:35:51.384Z,3688.00
2022-12-17T08:36:51.376Z,3600.00
2022-12-17T08:37:51.366Z,3772.00
2022-12-17T08:38:51.356Z,3616.00
2022-12-17T08:39:51.365Z,3400.00
2022-12-17T08:40:51.342Z,3520.00
2022-12-17T08:41:54.909Z,3680.00
2022-12-17T08:42:52.305Z,3776.00
2022-12-17T08:43:51.295Z,3608.00
2022-12-17T08:44:51.294Z,3836.00
2022-12-17T08:45:51.340Z,3912.00
2022-12-17T08:46:51.292Z,3816.00
2022-12-17T08:47:51.249Z,3816.00
2022-12-17T08:48:51.256Z,3932.00
2022-12-17T08:49:51.287Z,3976.00
2022-12-17T08:50:51.237Z,4292.00
2022-12-17T08:51:51.205Z,4868.00
2022-12-17T08:52:51.229Z,4992.00
2022-12-17T08:53:51.194Z,5216.00
2022-12-17T08:54:51.185Z,5044.00
2022-12-17T08:55:51.210Z,5132.00
2022-12-17T08:56:51.174Z,5132.00
2022-12-17T08:57:51.145Z,4628.00
2022-12-17T08:58:55.675Z,4612.00
2022-12-17T08:59:52.155Z,4456.00
2022-12-17T09:00:51.183Z,4700.00
2022-12-17T09:01:51.182Z,5020.00
2022-12-17T09:02:51.265Z,5208.00
2022-12-17T09:03:51.088Z,5368.00
2022-12-17T09:04:51.089Z,5500.00
2022-12-17T09:05:51.073Z,5172.00
2022-12-17T09:06:51.057Z,5500.00
2022-12-17T09:07:51.046Z,5488.00
2022-12-17T09:08:51.065Z,5496.00
2022-12-17T09:09:51.074Z,5568.00
2022-12-17T09:10:51.015Z,5384.00
2022-12-17T09:11:50.997Z,5488.00
2022-12-17T09:12:50.998Z,5772.00
2022-12-17T09:13:51.094Z,5996.00
2022-12-17T09:14:50.996Z,6448.00
2022-12-17T09:15:50.955Z,6728.00
2022-12-17T09:16:51.023Z,6196.00
2022-12-17T09:17:50.967Z,5888.00
2022-12-17T09:18:50.927Z,5612.00
2022-12-17T09:19:50.925Z,5664.00
2022-12-17T09:20:50.912Z,5380.00
2022-12-17T09:21:50.907Z,5880.00
2022-12-17T09:22:50.893Z,6612.00
2022-12-17T09:23:50.906Z,6460.00
2022-12-17T09:24:50.886Z,6352.00
2022-12-17T09:25:55.045Z,6572.00
2022-12-17T09:26:51.846Z,6508.00
2022-12-17T09:27:50.846Z,6264.00
2022-12-17T09:28:50.815Z,6368.00
2022-12-17T09:29:50.825Z,6716.00
2022-12-17T09:30:50.879Z,6744.00
2022-12-17T09:31:50.788Z,6704.00
2022-12-17T09:32:50.778Z,6968.00
2022-12-17T09:33:50.794Z,6980.00
2022-12-17T09:34:50.766Z,7236.00
2022-12-17T09:35:50.770Z,7968.00
2022-12-17T09:36:51.438Z,8376.00
2022-12-17T09:37:50.735Z,7784.00
2022-12-17T09:38:50.754Z,8588.00
2022-12-17T09:39:50.744Z,9184.00
2022-12-17T09:40:50.713Z,9348.00
2022-12-17T09:41:50.698Z,10148.00
2022-12-17T09:42:54.437Z,10196.00
2022-12-17T09:43:51.673Z,10508.00
2022-12-17T09:44:50.676Z,11528.00
2022-12-17T09:45:50.700Z,13080.00
2022-12-17T09:46:50.654Z,12772.00
2022-12-17T09:47:50.673Z,12664.00
2022-12-17T09:48:50.602Z,11784.00
2022-12-17T09:49:50.625Z,11724.00
2022-12-17T09:50:50.597Z,11692.00
2022-12-17T09:51:50.614Z,11100.00
2022-12-17T09:52:50.588Z,12828.00
2022-12-17T09:53:50.563Z,13104.00
2022-12-17T09:54:50.615Z,12724.00
2022-12-17T09:55:50.583Z,14152.00
2022-12-17T09:56:50.606Z,16512.00
2022-12-17T09:57:50.551Z,17632.00
2022-12-17T09:58:50.583Z,18592.00
2022-12-17T09:59:50.640Z,17856.00
2022-12-17T10:00:50.594Z,16608.00
2022-12-17T10:01:50.653Z,15232.00
2022-12-17T10:02:50.764Z,15424.00
2022-12-17T10:03:50.529Z,14880.00
2022-12-17T10:04:50.444Z,13972.00
2022-12-17T10:05:50.455Z,14948.00
2022-12-17T10:06:50.406Z,16320.00
2022-12-17T10:07:50.424Z,17856.00
2022-12-17T10:08:50.397Z,19264.00
2022-12-17T10:09:50.441Z,20832.00
2022-12-17T10:10:50.375Z,21440.00
2022-12-17T10:11:50.376Z,21024.00
2022-12-17T10:12:50.346Z,20896.00
2022-12-17T10:13:50.345Z,21600.00
2022-12-17T10:14:50.363Z,21600.00
2022-12-17T10:15:50.400Z,18272.00
2022-12-17T10:16:50.305Z,18496.00
2022-12-17T10:17:50.335Z,17888.00
2022-12-17T10:18:50.293Z,29888.00
2022-12-17T10:19:50.436Z,35616.00
2022-12-17T10:20:50.266Z,28480.00
2022-12-17T10:21:50.267Z,29952.00
2022-12-17T10:22:50.236Z,20704.00
2022-12-17T10:23:50.245Z,17312.00
2022-12-17T10:24:50.273Z,10872.00
2022-12-17T10:25:50.224Z,8964.00
2022-12-17T10:26:50.197Z,10608.00
2022-12-17T10:27:50.195Z,10752.00
2022-12-17T10:28:50.196Z,11356.00
2022-12-17T10:29:50.207Z,14048.00
2022-12-17T10:30:50.237Z,14816.00
2022-12-17T10:31:50.154Z,13796.00
2022-12-17T10:32:50.151Z,13692.00
2022-12-17T10:33:50.147Z,19552.00
2022-12-17T10:34:50.166Z,14784.00
2022-12-17T10:35:50.107Z,13344.00
2022-12-17T10:36:50.094Z,13048.00
2022-12-17T10:37:50.090Z,14696.00
2022-12-17T10:38:50.192Z,15156.00
2022-12-17T10:39:50.059Z,17856.00
2022-12-17T10:40:50.069Z,15252.00
2022-12-17T10:41:50.182Z,33728.00
2022-12-17T10:42:50.025Z,23936.00
2022-12-17T10:43:50.027Z,20448.00
2022-12-17T10:44:50.006Z,23904.00
2022-12-17T10:45:50.009Z,19264.00
2022-12-17T10:46:50.034Z,48416.00
2022-12-17T10:47:50.018Z,56768.00
2022-12-17T10:48:49.974Z,33664.00
2022-12-17T10:49:49.959Z,27136.00
2022-12-17T10:50:49.946Z,53120.00
2022-12-17T10:51:49.941Z,42848.00
2022-12-17T10:52:49.949Z,32672.00
2022-12-17T10:53:49.918Z,62336.00
2022-12-17T10:54:50.121Z,52416.00
2022-12-17T10:55:49.903Z,56960.00
2022-12-17T10:56:49.876Z,61760.00
2022-12-17T10:57:49.872Z,62464.00
2022-12-17T10:58:49.857Z,56896.00
2022-12-17T10:59:49.847Z,61856.00
2022-12-17T11:00:50.758Z,59328.00
2022-12-17T11:01:49.904Z,56032.00
2022-12-17T11:02:50.060Z,61312.00
2022-12-17T11:03:49.920Z,58752.00
2022-12-17T11:04:49.797Z,51456.00
2022-12-17T11:05:51.172Z,55168.00
2022-12-17T11:06:49.783Z,61088.00
2022-12-17T11:07:49.766Z,62880.00
2022-12-17T11:08:49.756Z,62176.00
2022-12-17T11:09:49.743Z,64128.00
2022-12-17T11:10:49.744Z,55104.00
2022-12-17T11:11:49.729Z,51936.00
2022-12-17T11:12:49.699Z,60672.00
2022-12-17T11:13:49.719Z,62368.00
2022-12-17T11:14:49.680Z,57632.00
2022-12-17T11:15:49.757Z,67392.00
2022-12-17T11:16:49.661Z,65984.00
2022-12-17T11:17:49.673Z,65408.00
2022-12-17T11:18:49.651Z,57312.00
2022-12-17T11:19:49.638Z,62720.00
2022-12-17T11:20:49.634Z,67744.00
2022-12-17T11:21:49.613Z,66912.00
2022-12-17T11:22:49.614Z,65664.00
2022-12-17T11:23:49.581Z,65824.00
2022-12-17T11:24:49.573Z,62336.00
2022-12-17T11:25:49.583Z,64512.00
2022-12-17T11:26:49.553Z,61664.00
2022-12-17T11:27:49.561Z,62496.00
2022-12-17T11:28:49.545Z,61536.00
2022-12-17T11:29:49.523Z,56032.00
2022-12-17T11:30:49.607Z,49344.00
2022-12-17T11:31:49.508Z,47648.00
2022-12-17T11:32:49.503Z,44224.00
2022-12-17T11:33:49.465Z,48768.00
2022-12-17T11:34:49.464Z,64320.00
2022-12-17T11:35:49.472Z,60608.00
2022-12-17T11:36:49.434Z,58976.00
2022-12-17T11:37:49.436Z,58944.00
2022-12-17T11:38:49.415Z,56512.00
2022-12-17T11:39:49.396Z,61024.00
2022-12-17T11:40:49.419Z,63264.00
2022-12-17T11:41:49.376Z,51328.00
2022-12-17T11:42:49.375Z,44896.00
2022-12-17T11:43:49.356Z,49728.00
2022-12-17T11:44:49.351Z,46688.00
2022-12-17T11:45:49.358Z,42656.00
2022-12-17T11:46:49.400Z,40000.00
2022-12-17T11:47:49.318Z,44640.00
2022-12-17T11:48:49.339Z,54048.00
2022-12-17T11:49:49.302Z,50752.00
2022-12-17T11:50:49.299Z,60768.00
2022-12-17T11:51:49.298Z,63168.00
2022-12-17T11:52:49.279Z,71616.00
2022-12-17T11:53:49.252Z,68960.00
2022-12-17T11:54:49.253Z,59808.00
2022-12-17T11:55:49.241Z,61152.00
2022-12-17T11:56:49.219Z,68576.00
2022-12-17T11:57:49.202Z,68768.00
2022-12-17T11:58:49.202Z,70336.00
2022-12-17T11:59:53.501Z,68960.00
2022-12-17T12:00:50.182Z,67264.00
2022-12-17T12:01:49.221Z,69408.00
2022-12-17T12:02:49.249Z,67840.00
2022-12-17T12:03:49.204Z,67904.00
2022-12-17T12:04:49.131Z,68032.00
2022-12-17T12:05:54.839Z,72832.00
2022-12-17T12:06:50.113Z,70496.00
2022-12-17T12:07:49.095Z,69696.00
2022-12-17T12:08:49.087Z,68224.00
2022-12-17T12:09:49.072Z,67360.00
2022-12-17T12:10:49.084Z,68480.00
2022-12-17T12:11:49.062Z,66080.00
2022-12-17T12:12:49.043Z,67232.00
2022-12-17T12:13:49.064Z,63072.00
2022-12-17T12:14:49.023Z,64864.00
2022-12-17T12:15:49.044Z,71008.00
2022-12-17T12:16:49.068Z,68992.00
2022-12-17T12:17:48.985Z,66528.00
2022-12-17T12:18:49.019Z,63680.00
2022-12-17T12:19:48.986Z,63328.00
2022-12-17T12:20:48.967Z,64832.00
2022-12-17T12:21:48.946Z,67328.00
2022-12-17T12:22:48.967Z,63680.00
2022-12-17T12:23:48.929Z,64192.00
2022-12-17T12:24:48.958Z,65248.00
2022-12-17T12:25:48.914Z,66272.00
2022-12-17T12:26:48.887Z,62848.00
2022-12-17T12:27:48.883Z,62816.00
2022-12-17T12:28:48.870Z,55200.00
2022-12-17T12:29:48.883Z,54464.00
2022-12-17T12:30:48.849Z,63936.00
2022-12-17T12:31:48.913Z,62368.00
2022-12-17T12:32:48.819Z,58144.00
2022-12-17T12:33:48.811Z,51008.00
2022-12-17T12:34:48.800Z,51104.00
2022-12-17T12:35:48.800Z,51744.00
2022-12-17T12:36:48.771Z,50592.00
2022-12-17T12:37:48.763Z,52928.00
2022-12-17T12:38:49.258Z,54400.00
2022-12-17T12:39:48.752Z,54944.00
2022-12-17T12:40:48.743Z,57312.00
2022-12-17T12:41:48.729Z,55488.00